createdAt,value
2022-09-24T00:01:29.699Z,100944.38
2022-09-24T00:04:01.952Z,100951.06
2022-09-24T00:06:33.277Z,100934.31
2022-09-24T00:08:59.475Z,100930.28
2022-09-24T00:11:27.971Z,100933.84
2022-09-24T00:13:56.319Z,100930.81
2022-09-24T00:16:24.957Z,100931.34
2022-09-24T00:18:51.466Z,100938.19
2022-09-24T00:21:24.231Z,100927.72
2022-09-24T00:23:59.452Z,100926.31
2022-09-24T00:26:44.546Z,100921.03
2022-09-24T00:29:15.360Z,100917.31
2022-09-24T00:31:42.164Z,100921.19
2022-09-24T00:34:08.391Z,100918.09
2022-09-24T00:36:34.760Z,100915.53
2022-09-24T00:39:01.331Z,100911.97
2022-09-24T00:41:33.794Z,100908.53
2022-09-24T00:44:00.872Z,100903.97
2022-09-24T00:46:31.420Z,100909.25
2022-09-24T00:49:03.537Z,100903.41
2022-09-24T00:51:32.464Z,100902.09
2022-09-24T00:54:06.571Z,100895.66
2022-09-24T00:56:37.220Z,100891.94
2022-09-24T00:59:07.827Z,100888.53
2022-09-24T01:01:34.413Z,100885.13
2022-09-24T01:04:01.630Z,100881.72
2022-09-24T01:06:28.241Z,100882.81
2022-09-24T01:08:57.853Z,100877.69
2022-09-24T01:11:46.347Z,100871.13
2022-09-24T01:14:26.248Z,100875.16
2022-09-24T01:17:07.615Z,100872.56
2022-09-24T01:19:55.352Z,100872.00
2022-09-24T01:22:39.849Z,100870.00
2022-09-24T01:25:17.987Z,100865.13
2022-09-24T01:28:05.919Z,100870.94
2022-09-24T01:30:37.530Z,100872.25
2022-09-24T01:33:09.613Z,100867.69
2022-09-24T01:35:52.816Z,100869.84
2022-09-24T01:38:27.699Z,100866.88
2022-09-24T01:40:58.665Z,100866.13
2022-09-24T01:43:27.131Z,100863.00
2022-09-24T01:46:00.356Z,100857.28
2022-09-24T01:48:27.347Z,100858.06
2022-09-24T01:51:13.865Z,100864.56
2022-09-24T01:53:56.814Z,100855.72
2022-09-24T01:56:30.156Z,100856.13
2022-09-24T01:59:10.300Z,100857.72
2022-09-24T02:02:04.073Z,100856.47
2022-09-24T02:04:37.206Z,100856.69
2022-09-24T02:07:12.743Z,100846.00
2022-09-24T02:09:42.559Z,100848.16
2022-09-24T02:12:10.771Z,100843.59
2022-09-24T02:14:43.127Z,100841.63
2022-09-24T02:17:11.015Z,100840.63
2022-09-24T02:19:40.540Z,100843.91
2022-09-24T02:22:08.907Z,100839.25
2022-09-24T02:24:49.608Z,100840.50
2022-09-24T02:27:17.686Z,100834.13
2022-09-24T02:29:45.501Z,100841.69
2022-09-24T02:32:15.727Z,100840.22
2022-09-24T02:34:48.118Z,100834.63
2022-09-24T02:37:15.729Z,100826.19
2022-09-24T02:39:42.254Z,100834.00
2022-09-24T02:42:11.772Z,100829.44
2022-09-24T02:44:38.143Z,100826.78
2022-09-24T02:47:06.192Z,100830.03
2022-09-24T02:49:32.545Z,100826.47
2022-09-24T02:51:59.051Z,100821.44
2022-09-24T02:54:25.497Z,100825.78
2022-09-24T02:56:52.625Z,100822.91
2022-09-24T02:59:19.148Z,100819.34
2022-09-24T03:01:46.250Z,100816.78
2022-09-24T03:04:14.565Z,100822.22
2022-09-24T03:06:41.289Z,100812.38
2022-09-24T03:09:07.651Z,100813.69
2022-09-24T03:11:34.946Z,100810.97
2022-09-24T03:14:01.414Z,100813.75
2022-09-24T03:16:27.931Z,100812.75
2022-09-24T03:18:54.172Z,100810.41
2022-09-24T03:21:21.765Z,100808.00
2022-09-24T03:23:48.131Z,100808.00
2022-09-24T03:26:14.695Z,100808.69
2022-09-24T03:28:41.404Z,100815.84
2022-09-24T03:31:08.183Z,100812.81
2022-09-24T03:33:43.525Z,100804.50
2022-09-24T03:36:18.409Z,100809.41
2022-09-24T03:38:46.129Z,100811.97
2022-09-24T03:41:13.734Z,100813.66
2022-09-24T03:43:40.114Z,100811.72
2022-09-24T03:46:07.853Z,100804.91
2022-09-24T03:48:36.418Z,100802.44
2022-09-24T03:51:08.235Z,100801.69
2022-09-24T03:53:34.451Z,100811.38
2022-09-24T03:56:01.798Z,100803.22
2022-09-24T03:58:31.029Z,100803.38
2022-09-24T04:00:58.099Z,100805.94
2022-09-24T04:03:24.936Z,100805.03
2022-09-24T04:05:51.322Z,100794.28
2022-09-24T04:08:20.366Z,100808.00
2022-09-24T04:10:48.103Z,100794.75
2022-09-24T04:13:15.289Z,100788.41
2022-09-24T04:15:41.923Z,100785.38
2022-09-24T04:18:08.673Z,100790.50
2022-09-24T04:20:35.156Z,100788.75
2022-09-24T04:23:01.632Z,100794.94
2022-09-24T04:25:29.999Z,100790.97
2022-09-24T04:28:02.797Z,100790.44
2022-09-24T04:30:30.843Z,100787.81
2022-09-24T04:32:59.780Z,100797.78
2022-09-24T04:35:29.135Z,100791.97
2022-09-24T04:37:56.664Z,100794.38
2022-09-24T04:40:26.658Z,100790.97
2022-09-24T04:42:53.494Z,100795.94
2022-09-24T04:45:24.307Z,100802.53
2022-09-24T04:47:55.381Z,100802.06
2022-09-24T04:50:22.983Z,100794.13
2022-09-24T04:52:53.506Z,100793.91
2022-09-24T04:55:20.537Z,100798.13
2022-09-24T04:57:47.589Z,100798.44
2022-09-24T05:00:17.048Z,100792.47
2022-09-24T05:02:44.469Z,100794.16
2022-09-24T05:05:12.564Z,100789.19
2022-09-24T05:07:40.922Z,100788.66
2022-09-24T05:10:07.835Z,100785.84
2022-09-24T05:12:35.651Z,100787.00
2022-09-24T05:15:02.366Z,100785.56
2022-09-24T05:17:28.824Z,100785.28
2022-09-24T05:19:57.155Z,100792.91
2022-09-24T05:22:26.800Z,100782.16
2022-09-24T05:24:53.619Z,100779.31
2022-09-24T05:27:21.022Z,100785.19
2022-09-24T05:29:47.308Z,100784.41
2022-09-24T05:32:16.695Z,100783.41
2022-09-24T05:34:44.370Z,100778.53
2022-09-24T05:37:12.234Z,100783.34
2022-09-24T05:39:39.210Z,100774.22
2022-09-24T05:42:08.619Z,100781.34
2022-09-24T05:44:36.618Z,100780.59
2022-09-24T05:47:03.068Z,100777.25
2022-09-24T05:49:29.634Z,100780.44
2022-09-24T05:51:56.224Z,100778.81
2022-09-24T05:54:22.649Z,100785.69
2022-09-24T05:56:49.200Z,100778.25
2022-09-24T05:59:15.396Z,100780.25
2022-09-24T06:01:41.737Z,100787.25
2022-09-24T06:04:10.636Z,100789.88
2022-09-24T06:06:37.007Z,100784.75
2022-09-24T06:09:03.837Z,100787.56
2022-09-24T06:11:39.745Z,100785.00
2022-09-24T06:14:07.774Z,100788.56
2022-09-24T06:16:34.527Z,100786.38
2022-09-24T06:19:01.198Z,100787.25
2022-09-24T06:21:27.996Z,100781.19
2022-09-24T06:23:54.422Z,100786.41
2022-09-24T06:26:21.327Z,100787.00
2022-09-24T06:28:47.654Z,100784.59
2022-09-24T06:31:14.161Z,100784.00
2022-09-24T06:33:40.472Z,100783.78
2022-09-24T06:36:07.491Z,100771.97
2022-09-24T06:38:34.755Z,100788.88
2022-09-24T06:41:05.591Z,100785.38
2022-09-24T06:43:33.664Z,100782.03
2022-09-24T06:46:01.505Z,100784.47
2022-09-24T06:48:31.599Z,100787.06
2022-09-24T06:50:57.936Z,100786.38
2022-09-24T06:53:24.797Z,100787.94
2022-09-24T06:55:52.656Z,100787.63
2022-09-24T06:58:20.178Z,100792.56
2022-09-24T07:00:52.525Z,100794.06
2022-09-24T07:03:19.847Z,100792.03
2022-09-24T07:05:46.123Z,100800.03
2022-09-24T07:08:12.650Z,100804.63
2022-09-24T07:10:46.198Z,100808.53
2022-09-24T07:13:13.491Z,100807.34
2022-09-24T07:15:41.292Z,100807.97
2022-09-24T07:18:08.336Z,100808.09
2022-09-24T07:20:36.252Z,100816.78
2022-09-24T07:23:07.589Z,100812.66
2022-09-24T07:25:34.698Z,100823.19
2022-09-24T07:28:03.884Z,100827.03
2022-09-24T07:30:32.350Z,100816.81
2022-09-24T07:32:58.941Z,100818.50
2022-09-24T07:35:26.964Z,100823.06
2022-09-24T07:38:00.947Z,100816.53
2022-09-24T07:40:29.081Z,100821.22
2022-09-24T07:42:56.291Z,100824.03
2022-09-24T07:45:25.344Z,100818.78
2022-09-24T07:47:59.433Z,100814.75
2022-09-24T07:50:27.000Z,100817.41
2022-09-24T07:52:54.085Z,100820.88
2022-09-24T07:55:21.530Z,100824.03
2022-09-24T07:57:53.398Z,100826.88
2022-09-24T08:00:21.107Z,100837.81
2022-09-24T08:02:47.851Z,100836.41
2022-09-24T08:05:15.892Z,100831.13
2022-09-24T08:07:42.412Z,100834.13
2022-09-24T08:10:09.287Z,100837.72
2022-09-24T08:12:36.360Z,100833.09
2022-09-24T08:15:02.971Z,100833.59
2022-09-24T08:17:30.719Z,100830.06
2022-09-24T08:19:57.248Z,100828.66
2022-09-24T08:22:24.278Z,100831.78
2022-09-24T08:24:50.521Z,100830.38
2022-09-24T08:27:17.558Z,100823.88
2022-09-24T08:29:43.949Z,100824.91
2022-09-24T08:32:10.249Z,100833.31
2022-09-24T08:34:39.836Z,100827.56
2022-09-24T08:37:07.161Z,100831.53
2022-09-24T08:39:33.481Z,100822.84
2022-09-24T08:42:03.873Z,100832.75
2022-09-24T08:44:56.235Z,100825.13
2022-09-24T08:47:31.858Z,100823.22
2022-09-24T08:50:08.724Z,100827.19
2022-09-24T08:52:46.182Z,100825.09
2022-09-24T08:55:32.174Z,100819.09
2022-09-24T08:58:10.152Z,100806.34
2022-09-24T09:00:45.741Z,100820.41
2022-09-24T09:03:36.520Z,100817.75
2022-09-24T09:06:14.576Z,100817.81
2022-09-24T09:09:16.431Z,100813.34
2022-09-24T09:11:46.817Z,100809.38
2022-09-24T09:14:14.592Z,100811.81
2022-09-24T09:16:47.849Z,100808.41
2022-09-24T09:19:16.955Z,100808.63
2022-09-24T09:21:52.903Z,100806.66
2022-09-24T09:24:25.349Z,100806.38
2022-09-24T09:26:55.011Z,100809.28
2022-09-24T09:29:24.916Z,100814.53
2022-09-24T09:32:04.610Z,100812.34
2022-09-24T09:34:51.074Z,100809.22
2022-09-24T09:37:40.044Z,100806.81
2022-09-24T09:40:34.077Z,100805.50
2022-09-24T09:43:02.577Z,100812.03
2022-09-24T09:46:02.953Z,100806.81
2022-09-24T09:48:51.544Z,100802.31
2022-09-24T09:51:22.234Z,100800.47
2022-09-24T09:54:03.667Z,100800.28
2022-09-24T09:56:34.184Z,100793.97
2022-09-24T09:59:14.681Z,100799.75
2022-09-24T10:01:45.186Z,100793.31
2022-09-24T10:04:23.493Z,100794.88
2022-09-24T10:06:49.909Z,100792.13
2022-09-24T10:09:21.822Z,100790.75
2022-09-24T10:11:48.093Z,100789.19
2022-09-24T10:14:18.258Z,100787.59
2022-09-24T10:16:50.866Z,100782.78
2022-09-24T10:19:24.040Z,100786.25
2022-09-24T10:21:53.042Z,100777.56
2022-09-24T10:24:28.141Z,100772.47
2022-09-24T10:26:54.807Z,100775.47
2022-09-24T10:29:45.131Z,100777.19
2022-09-24T10:32:17.672Z,100781.50
2022-09-24T10:35:05.118Z,100784.22
2022-09-24T10:37:31.741Z,100780.00
2022-09-24T10:40:11.128Z,100776.75
2022-09-24T10:42:37.685Z,100778.09
2022-09-24T10:45:14.960Z,100772.94
2022-09-24T10:47:59.720Z,100767.75
2022-09-24T10:50:37.507Z,100771.56
2022-09-24T10:53:08.259Z,100775.50
2022-09-24T10:55:45.418Z,100779.38
2022-09-24T10:58:50.973Z,100761.59
2022-09-24T11:01:26.480Z,100770.59
2022-09-24T11:04:20.672Z,100775.78
2022-09-24T11:07:14.888Z,100774.31
2022-09-24T11:10:05.789Z,100777.50
2022-09-24T11:12:55.394Z,100774.31
2022-09-24T11:15:33.728Z,100768.56
2022-09-24T11:18:11.474Z,100764.75
2022-09-24T11:21:02.281Z,100763.38
2022-09-24T11:24:04.056Z,100764.28
2022-09-24T11:26:51.774Z,100760.44
2022-09-24T11:29:37.362Z,100768.94
2022-09-24T11:32:28.213Z,100763.03
2022-09-24T11:35:12.265Z,100758.78
2022-09-24T11:38:04.402Z,100762.16
2022-09-24T11:40:51.251Z,100776.53
2022-09-24T11:43:56.698Z,100764.25
2022-09-24T11:46:46.503Z,100767.41
2022-09-24T11:49:28.224Z,100768.31
2022-09-24T11:52:21.155Z,100763.06
2022-09-24T11:55:20.999Z,100761.88
2022-09-24T11:58:17.367Z,100762.94
2022-09-24T12:00:51.632Z,100765.38
2022-09-24T12:03:39.366Z,100764.81
2022-09-24T12:06:12.347Z,100766.31
2022-09-24T12:08:41.566Z,100768.53
2022-09-24T12:11:24.338Z,100762.69
2022-09-24T12:14:01.940Z,100763.50
2022-09-24T12:16:33.150Z,100768.06
2022-09-24T12:19:20.629Z,100773.91
2022-09-24T12:21:50.057Z,100763.16
2022-09-24T12:25:07.831Z,100761.28
2022-09-24T12:27:36.732Z,100750.53
2022-09-24T12:30:31.001Z,100759.72
2022-09-24T12:33:04.816Z,100757.22
2022-09-24T12:36:03.692Z,100745.56
2022-09-24T12:38:49.562Z,100753.81
2022-09-24T12:41:39.513Z,100745.31
2022-09-24T12:44:11.874Z,100742.81
2022-09-24T12:46:45.938Z,100740.25
2022-09-24T12:49:24.161Z,100733.44
2022-09-24T12:51:55.763Z,100732.50
2022-09-24T12:54:27.158Z,100744.06
2022-09-24T12:57:26.175Z,100737.38
2022-09-24T12:59:58.320Z,100733.94
2022-09-24T13:02:46.157Z,100728.16
2022-09-24T13:05:22.249Z,100728.56
2022-09-24T13:08:07.380Z,100722.88
2022-09-24T13:10:35.849Z,100725.50
2022-09-24T13:13:15.320Z,100723.84
2022-09-24T13:15:42.162Z,100720.44
2022-09-24T13:18:09.416Z,100730.47
2022-09-24T13:20:40.677Z,100729.88
2022-09-24T13:23:18.847Z,100727.09
2022-09-24T13:26:03.102Z,100720.00
2022-09-24T13:28:38.889Z,100715.31
2022-09-24T13:31:21.897Z,100721.66
2022-09-24T13:33:57.250Z,100726.28
2022-09-24T13:36:39.309Z,100721.25
2022-09-24T13:39:30.831Z,100721.31
2022-09-24T13:42:18.446Z,100716.13
2022-09-24T13:44:56.028Z,100718.06
2022-09-24T13:47:48.282Z,100718.47
2022-09-24T13:50:19.373Z,100709.63
2022-09-24T13:52:53.237Z,100707.44
2022-09-24T13:55:25.928Z,100713.19
2022-09-24T13:57:52.345Z,100718.59
2022-09-24T14:00:21.707Z,100704.06
2022-09-24T14:02:52.747Z,100708.00
2022-09-24T14:05:21.131Z,100707.84
2022-09-24T14:08:19.515Z,100703.66
2022-09-24T14:10:50.384Z,100706.41
2022-09-24T14:13:26.454Z,100696.97
2022-09-24T14:16:01.937Z,100695.34
2022-09-24T14:18:29.073Z,100701.28
2022-09-24T14:21:09.685Z,100693.34
2022-09-24T14:23:51.615Z,100698.06
2022-09-24T14:26:30.336Z,100692.63
2022-09-24T14:29:00.130Z,100692.41
2022-09-24T14:31:27.574Z,100693.31
2022-09-24T14:33:54.211Z,100692.72
2022-09-24T14:36:27.536Z,100696.13
2022-09-24T14:39:04.769Z,100691.03
2022-09-24T14:41:34.662Z,100697.81
2022-09-24T14:44:24.340Z,100698.22
2022-09-24T14:46:55.639Z,100704.41
2022-09-24T14:49:25.843Z,100692.59
2022-09-24T14:51:55.314Z,100708.00
2022-09-24T14:54:33.668Z,100698.06
2022-09-24T14:57:18.137Z,100703.75
2022-09-24T14:59:46.466Z,100705.88
2022-09-24T15:02:24.548Z,100699.09
2022-09-24T15:04:54.239Z,100695.84
2022-09-24T15:07:26.257Z,100699.16
2022-09-24T15:09:55.583Z,100699.31
2022-09-24T15:12:30.321Z,100698.00
2022-09-24T15:14:58.659Z,100698.63
2022-09-24T15:17:30.470Z,100702.13
2022-09-24T15:19:57.389Z,100699.13
2022-09-24T15:22:26.535Z,100696.59
2022-09-24T15:24:58.792Z,100687.47
2022-09-24T15:27:31.307Z,100694.59
2022-09-24T15:29:59.784Z,100689.19
2022-09-24T15:32:28.551Z,100691.69
2022-09-24T15:34:55.948Z,100681.25
2022-09-24T15:37:25.085Z,100690.44
2022-09-24T15:39:56.900Z,100691.25
2022-09-24T15:42:25.942Z,100688.16
2022-09-24T15:44:56.264Z,100694.81
2022-09-24T15:47:22.720Z,100699.94
2022-09-24T15:49:49.759Z,100693.66
2022-09-24T15:52:23.650Z,100688.41
2022-09-24T15:54:51.934Z,100691.44
2022-09-24T15:57:18.187Z,100694.31
2022-09-24T15:59:44.491Z,100683.94
2022-09-24T16:02:17.594Z,100685.91
2022-09-24T16:04:44.125Z,100687.88
2022-09-24T16:07:10.482Z,100686.00
2022-09-24T16:09:36.883Z,100676.38
2022-09-24T16:12:03.418Z,100676.34
2022-09-24T16:14:29.703Z,100674.63
2022-09-24T16:16:56.231Z,100683.09
2022-09-24T16:19:22.565Z,100678.84
2022-09-24T16:21:51.325Z,100683.84
2022-09-24T16:24:18.232Z,100685.25
2022-09-24T16:26:44.559Z,100688.47
2022-09-24T16:29:11.359Z,100685.06
2022-09-24T16:31:37.977Z,100689.88
2022-09-24T16:34:04.775Z,100679.13
2022-09-24T16:36:31.510Z,100687.44
2022-09-24T16:38:58.302Z,100683.75
2022-09-24T16:41:26.005Z,100690.56
2022-09-24T16:43:56.194Z,100684.72
2022-09-24T16:46:23.519Z,100694.81
2022-09-24T16:48:50.079Z,100694.31
2022-09-24T16:51:17.299Z,100685.81
2022-09-24T16:53:48.769Z,100693.34
2022-09-24T16:56:16.886Z,100691.66
2022-09-24T16:58:45.087Z,100685.81
2022-09-24T17:01:14.152Z,100686.91
2022-09-24T17:03:41.267Z,100693.81
2022-09-24T17:06:08.576Z,100696.31
2022-09-24T17:08:54.891Z,100693.47
2022-09-24T17:11:22.335Z,100689.28
2022-09-24T17:13:49.581Z,100696.28
2022-09-24T17:16:18.012Z,100684.63
2022-09-24T17:18:46.516Z,100691.78
2022-09-24T17:21:14.595Z,100689.50
2022-09-24T17:23:41.035Z,100689.31
2022-09-24T17:26:14.048Z,100693.75
2022-09-24T17:28:43.658Z,100690.34
2022-09-24T17:31:13.618Z,100683.50
2022-09-24T17:33:44.800Z,100690.00
2022-09-24T17:36:15.107Z,100692.25
2022-09-24T17:38:41.939Z,100694.81
2022-09-24T17:41:11.169Z,100695.66
2022-09-24T17:43:38.479Z,100697.88
2022-09-24T17:46:14.109Z,100696.53
2022-09-24T17:48:44.129Z,100701.34
2022-09-24T17:51:13.490Z,100700.00
2022-09-24T17:53:40.470Z,100703.25
2022-09-24T17:56:09.328Z,100702.59
2022-09-24T17:58:37.774Z,100702.22
2022-09-24T18:01:17.846Z,100708.72
2022-09-24T18:03:45.556Z,100703.28
2022-09-24T18:06:14.215Z,100710.97
2022-09-24T18:08:43.235Z,100706.19
2022-09-24T18:11:13.059Z,100715.22
2022-09-24T18:13:39.534Z,100708.94
2022-09-24T18:16:12.583Z,100703.50
2022-09-24T18:18:39.622Z,100722.56
2022-09-24T18:21:08.650Z,100713.03
2022-09-24T18:23:35.516Z,100710.16
2022-09-24T18:26:19.070Z,100709.31
2022-09-24T18:28:45.830Z,100714.78
2022-09-24T18:31:12.790Z,100712.06
2022-09-24T18:33:43.230Z,100706.09
2022-09-24T18:36:13.538Z,100709.00
2022-09-24T18:38:41.740Z,100701.50
2022-09-24T18:41:11.444Z,100712.75
2022-09-24T18:43:38.329Z,100722.44
2022-09-24T18:46:07.745Z,100718.00
2022-09-24T18:48:34.653Z,100729.41
2022-09-24T18:51:01.067Z,100721.94
2022-09-24T18:53:30.890Z,100720.56
2022-09-24T18:56:02.515Z,100720.06
2022-09-24T18:58:29.285Z,100723.47
2022-09-24T19:01:01.116Z,100731.28
2022-09-24T19:03:28.947Z,100730.44
2022-09-24T19:06:01.904Z,100728.41
2022-09-24T19:08:31.206Z,100734.19
2022-09-24T19:11:07.168Z,100725.53
2022-09-24T19:13:36.239Z,100736.75
2022-09-24T19:16:05.373Z,100730.97
2022-09-24T19:18:32.764Z,100725.34
2022-09-24T19:20:59.229Z,100730.59
2022-09-24T19:23:25.813Z,100739.28
2022-09-24T19:25:52.260Z,100731.25
2022-09-24T19:28:18.772Z,100724.06
2022-09-24T19:30:48.642Z,100724.41
2022-09-24T19:33:16.384Z,100727.44
2022-09-24T19:36:04.302Z,100727.94
2022-09-24T19:38:34.989Z,100713.44
2022-09-24T19:41:22.256Z,100723.66
2022-09-24T19:43:51.480Z,100726.53
2022-09-24T19:46:20.260Z,100725.16
2022-09-24T19:48:48.805Z,100728.56
2022-09-24T19:51:18.870Z,100719.38
2022-09-24T19:53:53.473Z,100723.13
2022-09-24T19:56:22.897Z,100720.03
2022-09-24T19:58:52.118Z,100720.03
2022-09-24T20:01:20.934Z,100721.75
2022-09-24T20:03:47.921Z,100720.03
2022-09-24T20:06:18.830Z,100720.56
2022-09-24T20:08:46.199Z,100732.94
2022-09-24T20:11:19.729Z,100733.28
2022-09-24T20:13:52.075Z,100724.41
2022-09-24T20:16:20.918Z,100732.53
2022-09-24T20:18:49.098Z,100727.44
2022-09-24T20:21:17.705Z,100728.13
2022-09-24T20:23:46.799Z,100731.50
2022-09-24T20:26:33.562Z,100732.50
2022-09-24T20:29:01.344Z,100726.56
2022-09-24T20:31:28.433Z,100728.56
2022-09-24T20:33:54.842Z,100722.59
2022-09-24T20:36:24.442Z,100716.81
2022-09-24T20:38:52.422Z,100726.00
2022-09-24T20:41:21.145Z,100727.72
2022-09-24T20:43:47.926Z,100733.16
2022-09-24T20:46:16.154Z,100727.53
2022-09-24T20:48:42.814Z,100728.72
2022-09-24T20:51:17.897Z,100721.22
2022-09-24T20:53:45.848Z,100723.25
2022-09-24T20:56:13.053Z,100722.19
2022-09-24T20:58:39.605Z,100721.81
2022-09-24T21:01:07.514Z,100726.19
2022-09-24T21:03:44.997Z,100725.84
2022-09-24T21:06:14.170Z,100726.13
2022-09-24T21:08:43.193Z,100722.34
2022-09-24T21:11:18.053Z,100720.00
2022-09-24T21:13:50.788Z,100724.75
2022-09-24T21:16:19.993Z,100727.19
2022-09-24T21:18:47.883Z,100728.91
2022-09-24T21:21:19.646Z,100729.22
2022-09-24T21:23:52.144Z,100728.53
2022-09-24T21:26:23.949Z,100730.47
2022-09-24T21:28:52.537Z,100728.25
2022-09-24T21:31:21.515Z,100733.91
2022-09-24T21:33:51.925Z,100737.31
2022-09-24T21:36:19.497Z,100724.38
2022-09-24T21:39:00.303Z,100730.16
2022-09-24T21:41:32.285Z,100726.75
2022-09-24T21:43:59.268Z,100729.47
2022-09-24T21:46:27.665Z,100728.47
2022-09-24T21:48:55.210Z,100728.56
2022-09-24T21:51:21.927Z,100731.97
2022-09-24T21:53:53.292Z,100718.47
2022-09-24T21:56:21.132Z,100718.00
2022-09-24T21:58:48.393Z,100718.41
2022-09-24T22:01:17.873Z,100728.09
2022-09-24T22:03:47.598Z,100727.94
2022-09-24T22:06:14.348Z,100723.50
2022-09-24T22:08:40.629Z,100717.38
2022-09-24T22:11:09.326Z,100721.25
2022-09-24T22:13:37.119Z,100720.09
2022-09-24T22:16:05.083Z,100708.72
2022-09-24T22:18:33.260Z,100726.84
2022-09-24T22:21:05.815Z,100718.56
2022-09-24T22:23:32.207Z,100721.09
2022-09-24T22:25:58.738Z,100725.22
2022-09-24T22:28:26.791Z,100724.91
2022-09-24T22:30:55.873Z,100721.66
2022-09-24T22:33:41.873Z,100716.00
2022-09-24T22:36:08.404Z,100713.47
2022-09-24T22:38:35.341Z,100712.41
2022-09-24T22:41:07.446Z,100715.28
2022-09-24T22:43:34.282Z,100718.00
2022-09-24T22:46:02.917Z,100723.88
2022-09-24T22:48:31.341Z,100724.72
2022-09-24T22:50:57.516Z,100715.34
2022-09-24T22:53:24.138Z,100717.38
2022-09-24T22:56:01.138Z,100719.38
2022-09-24T22:58:27.704Z,100709.94
2022-09-24T23:00:53.876Z,100714.34
2022-09-24T23:03:20.245Z,100714.50
2022-09-24T23:05:47.099Z,100711.56
2022-09-24T23:08:13.310Z,100708.00
2022-09-24T23:10:39.770Z,100712.03
2022-09-24T23:13:06.157Z,100717.19
2022-09-24T23:15:32.329Z,100719.38
2022-09-24T23:17:58.452Z,100716.09
2022-09-24T23:20:24.776Z,100716.03
2022-09-24T23:22:50.923Z,100719.94
2022-09-24T23:25:17.089Z,100711.41
2022-09-24T23:27:43.660Z,100721.97
2022-09-24T23:30:10.055Z,100714.84
2022-09-24T23:32:36.431Z,100718.09
2022-09-24T23:35:02.860Z,100711.81
2022-09-24T23:37:29.035Z,100717.38
2022-09-24T23:39:55.396Z,100709.88
2022-09-24T23:42:22.453Z,100706.91
2022-09-24T23:44:48.690Z,100711.72
2022-09-24T23:47:14.835Z,100708.00
2022-09-24T23:49:41.196Z,100705.31
2022-09-24T23:52:07.483Z,100704.16
2022-09-24T23:54:34.476Z,100693.47
2022-09-24T23:57:01.220Z,100699.78
2022-09-24T23:59:27.393Z,100698.38
